sensor_id;sensor_type;location;lat;lon;timestamp;P1;durP1;ratioP1;P2;durP2;ratioP2
59978;SDS011;45839;44.882;20.650;2024-01-07T00:01:24;8.98;;;4.18;;
59978;SDS011;45839;44.882;20.650;2024-01-07T00:03:51;9.20;;;3.78;;
59978;SDS011;45839;44.882;20.650;2024-01-07T00:06:17;9.82;;;4.70;;
59978;SDS011;45839;44.882;20.650;2024-01-07T00:08:43;8.73;;;3.97;;
59978;SDS011;45839;44.882;20.650;2024-01-07T00:11:10;11.27;;;4.20;;
59978;SDS011;45839;44.882;20.650;2024-01-07T00:13:36;10.52;;;4.25;;
59978;SDS011;45839;44.882;20.650;2024-01-07T00:16:02;8.50;;;3.80;;
59978;SDS011;45839;44.882;20.650;2024-01-07T00:18:28;8.43;;;3.75;;
59978;SDS011;45839;44.882;20.650;2024-01-07T00:20:54;8.57;;;3.92;;
59978;SDS011;45839;44.882;20.650;2024-01-07T00:23:20;7.72;;;3.65;;
59978;SDS011;45839;44.882;20.650;2024-01-07T00:25:46;8.57;;;4.15;;
59978;SDS011;45839;44.882;20.650;2024-01-07T00:28:13;9.18;;;3.85;;
59978;SDS011;45839;44.882;20.650;2024-01-07T00:30:39;8.40;;;3.92;;
59978;SDS011;45839;44.882;20.650;2024-01-07T00:33:05;7.93;;;3.90;;
59978;SDS011;45839;44.882;20.650;2024-01-07T00:35:31;9.57;;;3.53;;
59978;SDS011;45839;44.882;20.650;2024-01-07T00:37:57;8.93;;;4.20;;
59978;SDS011;45839;44.882;20.650;2024-01-07T00:40:24;10.57;;;4.32;;
59978;SDS011;45839;44.882;20.650;2024-01-07T00:42:50;8.80;;;4.28;;
59978;SDS011;45839;44.882;20.650;2024-01-07T00:45:16;10.82;;;4.30;;
59978;SDS011;45839;44.882;20.650;2024-01-07T00:47:42;8.68;;;3.83;;
59978;SDS011;45839;44.882;20.650;2024-01-07T00:50:08;9.15;;;3.92;;
59978;SDS011;45839;44.882;20.650;2024-01-07T00:52:35;7.88;;;3.78;;
59978;SDS011;45839;44.882;20.650;2024-01-07T00:55:03;7.38;;;3.70;;
59978;SDS011;45839;44.882;20.650;2024-01-07T00:57:29;9.82;;;4.00;;
59978;SDS011;45839;44.882;20.650;2024-01-07T00:59:55;9.20;;;3.70;;
59978;SDS011;45839;44.882;20.650;2024-01-07T01:02:21;8.82;;;3.80;;
59978;SDS011;45839;44.882;20.650;2024-01-07T01:04:47;8.65;;;3.83;;
59978;SDS011;45839;44.882;20.650;2024-01-07T01:07:14;7.97;;;4.03;;
59978;SDS011;45839;44.882;20.650;2024-01-07T01:09:40;7.80;;;3.88;;
59978;SDS011;45839;44.882;20.650;2024-01-07T01:12:06;8.43;;;3.50;;
59978;SDS011;45839;44.882;20.650;2024-01-07T01:14:32;8.23;;;3.90;;
59978;SDS011;45839;44.882;20.650;2024-01-07T01:16:59;8.45;;;3.53;;
59978;SDS011;45839;44.882;20.650;2024-01-07T01:19:25;8.02;;;3.90;;
59978;SDS011;45839;44.882;20.650;2024-01-07T01:21:51;8.13;;;3.28;;
59978;SDS011;45839;44.882;20.650;2024-01-07T01:24:17;7.75;;;4.07;;
59978;SDS011;45839;44.882;20.650;2024-01-07T01:26:43;8.10;;;3.97;;
59978;SDS011;45839;44.882;20.650;2024-01-07T01:29:09;6.82;;;3.45;;
59978;SDS011;45839;44.882;20.650;2024-01-07T01:31:35;8.30;;;4.00;;
59978;SDS011;45839;44.882;20.650;2024-01-07T01:34:01;8.13;;;3.50;;
59978;SDS011;45839;44.882;20.650;2024-01-07T01:36:28;8.55;;;4.32;;
59978;SDS011;45839;44.882;20.650;2024-01-07T01:38:56;8.30;;;3.78;;
59978;SDS011;45839;44.882;20.650;2024-01-07T01:41:22;7.75;;;3.60;;
59978;SDS011;45839;44.882;20.650;2024-01-07T01:43:48;8.95;;;4.50;;
59978;SDS011;45839;44.882;20.650;2024-01-07T01:46:14;9.95;;;4.05;;
59978;SDS011;45839;44.882;20.650;2024-01-07T01:48:41;7.95;;;3.67;;
59978;SDS011;45839;44.882;20.650;2024-01-07T01:51:07;8.20;;;3.67;;
59978;SDS011;45839;44.882;20.650;2024-01-07T01:53:33;10.90;;;3.97;;
59978;SDS011;45839;44.882;20.650;2024-01-07T01:56:00;8.38;;;3.13;;
59978;SDS011;45839;44.882;20.650;2024-01-07T01:58:30;7.88;;;3.80;;
59978;SDS011;45839;44.882;20.650;2024-01-07T02:00:56;11.05;;;3.72;;
59978;SDS011;45839;44.882;20.650;2024-01-07T02:03:22;7.55;;;3.67;;
59978;SDS011;45839;44.882;20.650;2024-01-07T02:05:49;9.60;;;4.15;;
59978;SDS011;45839;44.882;20.650;2024-01-07T02:08:16;7.18;;;3.90;;
59978;SDS011;45839;44.882;20.650;2024-01-07T02:10:43;8.15;;;3.80;;
59978;SDS011;45839;44.882;20.650;2024-01-07T02:13:10;7.60;;;4.00;;
59978;SDS011;45839;44.882;20.650;2024-01-07T02:15:36;7.93;;;3.90;;
59978;SDS011;45839;44.882;20.650;2024-01-07T02:18:02;9.95;;;3.80;;
59978;SDS011;45839;44.882;20.650;2024-01-07T02:20:28;8.35;;;3.67;;
59978;SDS011;45839;44.882;20.650;2024-01-07T02:22:55;7.90;;;3.92;;
59978;SDS011;45839;44.882;20.650;2024-01-07T02:25:23;8.95;;;4.50;;
59978;SDS011;45839;44.882;20.650;2024-01-07T02:27:49;10.45;;;4.40;;
59978;SDS011;45839;44.882;20.650;2024-01-07T02:30:15;9.07;;;4.20;;
59978;SDS011;45839;44.882;20.650;2024-01-07T02:32:42;9.20;;;4.55;;
59978;SDS011;45839;44.882;20.650;2024-01-07T02:35:08;8.55;;;4.10;;
59978;SDS011;45839;44.882;20.650;2024-01-07T02:37:34;8.10;;;3.80;;
59978;SDS011;45839;44.882;20.650;2024-01-07T02:40:00;11.15;;;4.43;;
59978;SDS011;45839;44.882;20.650;2024-01-07T02:42:26;9.32;;;4.50;;
59978;SDS011;45839;44.882;20.650;2024-01-07T02:44:52;9.02;;;3.90;;
59978;SDS011;45839;44.882;20.650;2024-01-07T02:47:18;8.07;;;4.10;;
59978;SDS011;45839;44.882;20.650;2024-01-07T02:49:44;10.63;;;4.95;;
59978;SDS011;45839;44.882;20.650;2024-01-07T02:52:11;9.75;;;4.40;;
59978;SDS011;45839;44.882;20.650;2024-01-07T02:54:37;12.20;;;4.18;;
59978;SDS011;45839;44.882;20.650;2024-01-07T02:57:03;7.88;;;4.00;;
59978;SDS011;45839;44.882;20.650;2024-01-07T02:59:29;9.75;;;4.40;;
59978;SDS011;45839;44.882;20.650;2024-01-07T03:01:55;7.85;;;4.28;;
59978;SDS011;45839;44.882;20.650;2024-01-07T03:04:21;9.73;;;4.43;;
59978;SDS011;45839;44.882;20.650;2024-01-07T03:06:47;6.82;;;3.67;;
59978;SDS011;45839;44.882;20.650;2024-01-07T03:09:13;8.80;;;4.07;;
59978;SDS011;45839;44.882;20.650;2024-01-07T03:11:40;7.60;;;3.95;;
59978;SDS011;45839;44.882;20.650;2024-01-07T03:14:07;9.60;;;4.05;;
59978;SDS011;45839;44.882;20.650;2024-01-07T03:16:33;8.10;;;4.05;;
59978;SDS011;45839;44.882;20.650;2024-01-07T03:18:59;8.27;;;3.92;;
59978;SDS011;45839;44.882;20.650;2024-01-07T03:21:27;7.40;;;3.97;;
59978;SDS011;45839;44.882;20.650;2024-01-07T03:23:53;8.18;;;3.55;;
59978;SDS011;45839;44.882;20.650;2024-01-07T03:26:19;9.20;;;3.72;;
59978;SDS011;45839;44.882;20.650;2024-01-07T03:28:45;7.78;;;3.55;;
59978;SDS011;45839;44.882;20.650;2024-01-07T03:31:12;7.10;;;3.40;;
59978;SDS011;45839;44.882;20.650;2024-01-07T03:33:38;8.07;;;3.92;;
59978;SDS011;45839;44.882;20.650;2024-01-07T03:36:08;8.98;;;3.67;;
59978;SDS011;45839;44.882;20.650;2024-01-07T03:38:35;8.52;;;4.03;;
59978;SDS011;45839;44.882;20.650;2024-01-07T03:41:01;8.07;;;3.65;;
59978;SDS011;45839;44.882;20.650;2024-01-07T03:43:27;8.77;;;3.63;;
59978;SDS011;45839;44.882;20.650;2024-01-07T03:45:53;8.52;;;3.50;;
59978;SDS011;45839;44.882;20.650;2024-01-07T03:48:19;7.10;;;3.42;;
59978;SDS011;45839;44.882;20.650;2024-01-07T03:50:46;7.43;;;3.13;;
59978;SDS011;45839;44.882;20.650;2024-01-07T03:53:12;7.20;;;3.50;;
59978;SDS011;45839;44.882;20.650;2024-01-07T03:55:38;7.20;;;3.20;;
59978;SDS011;45839;44.882;20.650;2024-01-07T03:58:04;7.45;;;3.10;;
59978;SDS011;45839;44.882;20.650;2024-01-07T04:00:31;9.23;;;3.53;;
59978;SDS011;45839;44.882;20.650;2024-01-07T04:02:57;8.98;;;3.60;;
59978;SDS011;45839;44.882;20.650;2024-01-07T04:05:23;8.50;;;3.55;;
59978;SDS011;45839;44.882;20.650;2024-01-07T04:07:49;9.15;;;3.33;;
59978;SDS011;45839;44.882;20.650;2024-01-07T04:10:16;6.95;;;3.30;;
59978;SDS011;45839;44.882;20.650;2024-01-07T04:12:42;9.10;;;3.58;;
59978;SDS011;45839;44.882;20.650;2024-01-07T04:15:09;9.13;;;4.07;;
59978;SDS011;45839;44.882;20.650;2024-01-07T04:17:35;9.15;;;3.67;;
59978;SDS011;45839;44.882;20.650;2024-01-07T04:20:01;7.30;;;3.63;;
59978;SDS011;45839;44.882;20.650;2024-01-07T04:22:27;7.68;;;3.80;;
59978;SDS011;45839;44.882;20.650;2024-01-07T04:24:53;8.52;;;4.00;;
59978;SDS011;45839;44.882;20.650;2024-01-07T04:27:19;12.02;;;4.18;;
59978;SDS011;45839;44.882;20.650;2024-01-07T04:29:45;8.05;;;3.90;;
59978;SDS011;45839;44.882;20.650;2024-01-07T04:32:12;9.35;;;4.82;;
59978;SDS011;45839;44.882;20.650;2024-01-07T04:34:38;9.98;;;5.28;;
59978;SDS011;45839;44.882;20.650;2024-01-07T04:37:04;12.63;;;5.63;;
59978;SDS011;45839;44.882;20.650;2024-01-07T04:39:30;11.02;;;5.13;;
59978;SDS011;45839;44.882;20.650;2024-01-07T04:41:56;11.35;;;5.35;;
59978;SDS011;45839;44.882;20.650;2024-01-07T04:44:23;10.15;;;4.85;;
59978;SDS011;45839;44.882;20.650;2024-01-07T04:46:49;9.38;;;5.20;;
59978;SDS011;45839;44.882;20.650;2024-01-07T04:49:15;10.60;;;5.00;;
59978;SDS011;45839;44.882;20.650;2024-01-07T04:51:41;9.02;;;5.20;;
59978;SDS011;45839;44.882;20.650;2024-01-07T04:54:07;9.80;;;5.13;;
59978;SDS011;45839;44.882;20.650;2024-01-07T04:56:33;11.05;;;5.13;;
59978;SDS011;45839;44.882;20.650;2024-01-07T04:58:59;13.93;;;6.38;;
59978;SDS011;45839;44.882;20.650;2024-01-07T05:01:25;14.02;;;6.75;;
59978;SDS011;45839;44.882;20.650;2024-01-07T05:03:52;12.25;;;6.45;;
59978;SDS011;45839;44.882;20.650;2024-01-07T05:06:18;16.05;;;8.00;;
59978;SDS011;45839;44.882;20.650;2024-01-07T05:08:44;19.75;;;10.02;;
59978;SDS011;45839;44.882;20.650;2024-01-07T05:11:10;17.77;;;9.80;;
59978;SDS011;45839;44.882;20.650;2024-01-07T05:13:36;24.35;;;12.10;;
59978;SDS011;45839;44.882;20.650;2024-01-07T05:16:03;28.88;;;14.15;;
59978;SDS011;45839;44.882;20.650;2024-01-07T05:18:29;28.58;;;13.93;;
59978;SDS011;45839;44.882;20.650;2024-01-07T05:20:55;21.63;;;10.65;;
59978;SDS011;45839;44.882;20.650;2024-01-07T05:23:21;16.38;;;8.00;;
59978;SDS011;45839;44.882;20.650;2024-01-07T05:25:48;13.50;;;6.60;;
59978;SDS011;45839;44.882;20.650;2024-01-07T05:28:14;15.40;;;7.53;;
59978;SDS011;45839;44.882;20.650;2024-01-07T05:30:44;12.75;;;6.35;;
59978;SDS011;45839;44.882;20.650;2024-01-07T05:33:10;13.35;;;6.85;;
59978;SDS011;45839;44.882;20.650;2024-01-07T05:35:37;15.55;;;7.25;;
59978;SDS011;45839;44.882;20.650;2024-01-07T05:38:03;14.65;;;7.22;;
59978;SDS011;45839;44.882;20.650;2024-01-07T05:40:29;14.05;;;7.28;;
59978;SDS011;45839;44.882;20.650;2024-01-07T05:42:56;13.00;;;6.75;;
59978;SDS011;45839;44.882;20.650;2024-01-07T05:45:22;11.85;;;7.05;;
59978;SDS011;45839;44.882;20.650;2024-01-07T05:47:48;17.20;;;8.75;;
59978;SDS011;45839;44.882;20.650;2024-01-07T05:50:14;15.82;;;9.00;;
59978;SDS011;45839;44.882;20.650;2024-01-07T05:52:43;17.83;;;9.73;;
59978;SDS011;45839;44.882;20.650;2024-01-07T05:55:10;16.77;;;9.77;;
59978;SDS011;45839;44.882;20.650;2024-01-07T05:57:36;18.83;;;10.73;;
59978;SDS011;45839;44.882;20.650;2024-01-07T06:00:02;15.30;;;9.18;;
59978;SDS011;45839;44.882;20.650;2024-01-07T06:02:28;16.60;;;8.77;;
59978;SDS011;45839;44.882;20.650;2024-01-07T06:04:54;15.85;;;8.02;;
59978;SDS011;45839;44.882;20.650;2024-01-07T06:07:21;13.45;;;7.22;;
59978;SDS011;45839;44.882;20.650;2024-01-07T06:09:47;13.18;;;6.70;;
59978;SDS011;45839;44.882;20.650;2024-01-07T06:12:13;14.35;;;7.63;;
59978;SDS011;45839;44.882;20.650;2024-01-07T06:14:39;10.77;;;6.25;;
59978;SDS011;45839;44.882;20.650;2024-01-07T06:17:05;14.23;;;7.43;;
59978;SDS011;45839;44.882;20.650;2024-01-07T06:19:31;12.30;;;6.35;;
59978;SDS011;45839;44.882;20.650;2024-01-07T06:21:57;13.32;;;7.22;;
59978;SDS011;45839;44.882;20.650;2024-01-07T06:24:23;20.13;;;9.02;;
59978;SDS011;45839;44.882;20.650;2024-01-07T06:26:49;16.30;;;7.65;;
59978;SDS011;45839;44.882;20.650;2024-01-07T06:29:15;20.77;;;10.43;;
59978;SDS011;45839;44.882;20.650;2024-01-07T06:31:44;14.00;;;8.30;;
59978;SDS011;45839;44.882;20.650;2024-01-07T06:34:11;13.30;;;7.60;;
59978;SDS011;45839;44.882;20.650;2024-01-07T06:36:40;13.80;;;7.60;;
59978;SDS011;45839;44.882;20.650;2024-01-07T06:39:07;16.02;;;8.50;;
59978;SDS011;45839;44.882;20.650;2024-01-07T06:41:33;18.92;;;11.73;;
59978;SDS011;45839;44.882;20.650;2024-01-07T06:44:00;24.83;;;13.75;;
59978;SDS011;45839;44.882;20.650;2024-01-07T06:46:26;31.08;;;18.30;;
59978;SDS011;45839;44.882;20.650;2024-01-07T06:48:52;32.58;;;19.83;;
59978;SDS011;45839;44.882;20.650;2024-01-07T06:51:18;27.45;;;17.42;;
59978;SDS011;45839;44.882;20.650;2024-01-07T06:53:44;25.95;;;14.20;;
59978;SDS011;45839;44.882;20.650;2024-01-07T06:56:11;19.15;;;12.18;;
59978;SDS011;45839;44.882;20.650;2024-01-07T06:58:37;17.92;;;10.50;;
59978;SDS011;45839;44.882;20.650;2024-01-07T07:01:03;16.55;;;9.82;;
59978;SDS011;45839;44.882;20.650;2024-01-07T07:03:29;17.95;;;10.35;;
59978;SDS011;45839;44.882;20.650;2024-01-07T07:05:55;17.50;;;9.52;;
59978;SDS011;45839;44.882;20.650;2024-01-07T07:08:21;19.55;;;9.50;;
59978;SDS011;45839;44.882;20.650;2024-01-07T07:10:47;14.70;;;8.88;;
59978;SDS011;45839;44.882;20.650;2024-01-07T07:13:14;14.23;;;8.50;;
59978;SDS011;45839;44.882;20.650;2024-01-07T07:15:40;13.80;;;7.65;;
59978;SDS011;45839;44.882;20.650;2024-01-07T07:18:06;16.40;;;8.65;;
59978;SDS011;45839;44.882;20.650;2024-01-07T07:20:32;12.60;;;7.65;;
59978;SDS011;45839;44.882;20.650;2024-01-07T07:22:59;20.00;;;9.90;;
59978;SDS011;45839;44.882;20.650;2024-01-07T07:25:25;41.45;;;19.40;;
59978;SDS011;45839;44.882;20.650;2024-01-07T07:27:51;48.85;;;21.55;;
59978;SDS011;45839;44.882;20.650;2024-01-07T07:30:17;57.40;;;24.92;;
59978;SDS011;45839;44.882;20.650;2024-01-07T07:32:44;50.00;;;22.77;;
59978;SDS011;45839;44.882;20.650;2024-01-07T07:35:10;43.00;;;19.45;;
59978;SDS011;45839;44.882;20.650;2024-01-07T07:37:36;32.65;;;16.30;;
59978;SDS011;45839;44.882;20.650;2024-01-07T07:40:03;23.55;;;13.05;;
59978;SDS011;45839;44.882;20.650;2024-01-07T07:42:29;22.08;;;12.35;;
59978;SDS011;45839;44.882;20.650;2024-01-07T07:44:55;19.80;;;9.80;;
59978;SDS011;45839;44.882;20.650;2024-01-07T07:47:21;15.38;;;8.38;;
59978;SDS011;45839;44.882;20.650;2024-01-07T07:49:48;13.95;;;7.05;;
59978;SDS011;45839;44.882;20.650;2024-01-07T07:52:15;14.20;;;7.10;;
59978;SDS011;45839;44.882;20.650;2024-01-07T07:54:47;13.73;;;6.82;;
59978;SDS011;45839;44.882;20.650;2024-01-07T07:57:13;13.18;;;7.03;;
59978;SDS011;45839;44.882;20.650;2024-01-07T07:59:39;13.65;;;6.78;;
59978;SDS011;45839;44.882;20.650;2024-01-07T08:02:05;12.20;;;6.28;;
59978;SDS011;45839;44.882;20.650;2024-01-07T08:04:31;13.88;;;8.30;;
59978;SDS011;45839;44.882;20.650;2024-01-07T08:06:57;11.65;;;6.80;;
59978;SDS011;45839;44.882;20.650;2024-01-07T08:09:26;12.68;;;6.88;;
59978;SDS011;45839;44.882;20.650;2024-01-07T08:11:52;12.18;;;6.50;;
59978;SDS011;45839;44.882;20.650;2024-01-07T08:14:18;11.15;;;6.03;;
59978;SDS011;45839;44.882;20.650;2024-01-07T08:16:44;11.57;;;6.10;;
59978;SDS011;45839;44.882;20.650;2024-01-07T08:19:10;10.20;;;6.03;;
59978;SDS011;45839;44.882;20.650;2024-01-07T08:21:36;11.15;;;5.82;;
59978;SDS011;45839;44.882;20.650;2024-01-07T08:24:02;10.10;;;5.10;;
59978;SDS011;45839;44.882;20.650;2024-01-07T08:26:29;8.73;;;4.78;;
59978;SDS011;45839;44.882;20.650;2024-01-07T08:28:56;9.82;;;5.15;;
59978;SDS011;45839;44.882;20.650;2024-01-07T08:31:23;8.98;;;4.20;;
59978;SDS011;45839;44.882;20.650;2024-01-07T08:33:49;11.23;;;6.15;;
59978;SDS011;45839;44.882;20.650;2024-01-07T08:36:15;11.15;;;5.75;;
59978;SDS011;45839;44.882;20.650;2024-01-07T08:38:42;16.50;;;8.88;;
59978;SDS011;45839;44.882;20.650;2024-01-07T08:41:08;13.32;;;6.97;;
59978;SDS011;45839;44.882;20.650;2024-01-07T08:43:34;17.75;;;7.65;;
59978;SDS011;45839;44.882;20.650;2024-01-07T08:46:00;18.40;;;9.48;;
59978;SDS011;45839;44.882;20.650;2024-01-07T08:48:29;14.20;;;7.93;;
59978;SDS011;45839;44.882;20.650;2024-01-07T08:50:55;13.68;;;7.03;;
59978;SDS011;45839;44.882;20.650;2024-01-07T08:53:22;14.20;;;7.97;;
59978;SDS011;45839;44.882;20.650;2024-01-07T08:55:48;12.27;;;7.32;;
59978;SDS011;45839;44.882;20.650;2024-01-07T08:58:16;11.68;;;6.85;;
59978;SDS011;45839;44.882;20.650;2024-01-07T09:00:42;12.98;;;6.97;;
59978;SDS011;45839;44.882;20.650;2024-01-07T09:03:09;13.27;;;7.88;;
59978;SDS011;45839;44.882;20.650;2024-01-07T09:05:36;13.38;;;7.13;;
59978;SDS011;45839;44.882;20.650;2024-01-07T09:08:02;13.15;;;7.97;;
59978;SDS011;45839;44.882;20.650;2024-01-07T09:10:28;12.93;;;8.27;;
59978;SDS011;45839;44.882;20.650;2024-01-07T09:12:54;16.67;;;8.45;;
59978;SDS011;45839;44.882;20.650;2024-01-07T09:15:20;16.77;;;9.18;;
59978;SDS011;45839;44.882;20.650;2024-01-07T09:17:46;20.67;;;11.38;;
59978;SDS011;45839;44.882;20.650;2024-01-07T09:20:22;16.65;;;9.65;;
59978;SDS011;45839;44.882;20.650;2024-01-07T09:22:54;15.93;;;9.10;;
59978;SDS011;45839;44.882;20.650;2024-01-07T09:25:20;15.10;;;8.63;;
59978;SDS011;45839;44.882;20.650;2024-01-07T09:27:46;13.45;;;7.90;;
59978;SDS011;45839;44.882;20.650;2024-01-07T09:30:27;16.38;;;8.68;;
59978;SDS011;45839;44.882;20.650;2024-01-07T09:32:53;17.73;;;8.93;;
59978;SDS011;45839;44.882;20.650;2024-01-07T09:35:19;17.55;;;10.40;;
59978;SDS011;45839;44.882;20.650;2024-01-07T09:37:45;13.13;;;7.60;;
59978;SDS011;45839;44.882;20.650;2024-01-07T10:02:55;13.93;;;7.35;;
59978;SDS011;45839;44.882;20.650;2024-01-07T10:05:24;15.82;;;8.40;;
59978;SDS011;45839;44.882;20.650;2024-01-07T10:07:50;16.38;;;9.80;;
59978;SDS011;45839;44.882;20.650;2024-01-07T10:10:19;17.35;;;10.48;;
59978;SDS011;45839;44.882;20.650;2024-01-07T10:12:46;16.13;;;9.40;;
59978;SDS011;45839;44.882;20.650;2024-01-07T10:15:13;19.77;;;10.27;;
59978;SDS011;45839;44.882;20.650;2024-01-07T10:17:42;15.43;;;8.02;;
59978;SDS011;45839;44.882;20.650;2024-01-07T10:20:08;14.70;;;8.50;;
59978;SDS011;45839;44.882;20.650;2024-01-07T10:22:36;18.00;;;9.80;;
59978;SDS011;45839;44.882;20.650;2024-01-07T10:25:03;23.38;;;13.27;;
59978;SDS011;45839;44.882;20.650;2024-01-07T10:27:29;16.67;;;8.63;;
59978;SDS011;45839;44.882;20.650;2024-01-07T10:29:58;22.80;;;13.18;;
59978;SDS011;45839;44.882;20.650;2024-01-07T10:32:24;15.32;;;8.93;;
59978;SDS011;45839;44.882;20.650;2024-01-07T10:34:50;13.70;;;7.80;;
59978;SDS011;45839;44.882;20.650;2024-01-07T10:37:20;14.20;;;7.63;;
59978;SDS011;45839;44.882;20.650;2024-01-07T10:39:46;28.35;;;14.25;;
59978;SDS011;45839;44.882;20.650;2024-01-07T10:42:14;357.77;;;177.57;;
59978;SDS011;45839;44.882;20.650;2024-01-07T10:44:42;121.68;;;75.70;;
59978;SDS011;45839;44.882;20.650;2024-01-07T10:47:08;70.65;;;41.05;;
59978;SDS011;45839;44.882;20.650;2024-01-07T10:49:35;291.95;;;185.52;;
59978;SDS011;45839;44.882;20.650;2024-01-07T10:54:29;250.85;;;164.38;;
59978;SDS011;45839;44.882;20.650;2024-01-07T10:56:59;95.70;;;60.42;;
59978;SDS011;45839;44.882;20.650;2024-01-07T10:59:27;50.70;;;34.45;;
59978;SDS011;45839;44.882;20.650;2024-01-07T11:01:53;23.88;;;15.85;;
59978;SDS011;45839;44.882;20.650;2024-01-07T11:04:23;47.47;;;30.15;;
59978;SDS011;45839;44.882;20.650;2024-01-07T11:06:57;23.63;;;14.70;;
59978;SDS011;45839;44.882;20.650;2024-01-07T11:11:51;19.27;;;12.65;;
59978;SDS011;45839;44.882;20.650;2024-01-07T11:14:43;20.35;;;12.52;;
59978;SDS011;45839;44.882;20.650;2024-01-07T11:20:06;20.20;;;13.00;;
59978;SDS011;45839;44.882;20.650;2024-01-07T11:22:33;18.92;;;13.43;;
59978;SDS011;45839;44.882;20.650;2024-01-07T11:25:00;24.73;;;17.45;;
59978;SDS011;45839;44.882;20.650;2024-01-07T11:27:29;24.13;;;14.88;;
59978;SDS011;45839;44.882;20.650;2024-01-07T11:30:10;21.00;;;14.38;;
59978;SDS011;45839;44.882;20.650;2024-01-07T11:33:05;26.20;;;16.67;;
59978;SDS011;45839;44.882;20.650;2024-01-07T11:38:16;29.27;;;16.98;;
59978;SDS011;45839;44.882;20.650;2024-01-07T11:40:42;38.42;;;20.20;;
59978;SDS011;45839;44.882;20.650;2024-01-07T11:43:08;70.25;;;35.63;;
59978;SDS011;45839;44.882;20.650;2024-01-07T11:45:36;91.10;;;46.50;;
59978;SDS011;45839;44.882;20.650;2024-01-07T11:48:04;80.22;;;45.20;;
59978;SDS011;45839;44.882;20.650;2024-01-07T11:50:30;84.13;;;46.88;;
59978;SDS011;45839;44.882;20.650;2024-01-07T11:52:57;64.07;;;34.92;;
59978;SDS011;45839;44.882;20.650;2024-01-07T11:55:23;71.05;;;40.22;;
59978;SDS011;45839;44.882;20.650;2024-01-07T11:57:50;73.38;;;39.67;;
59978;SDS011;45839;44.882;20.650;2024-01-07T12:00:17;67.35;;;37.58;;
59978;SDS011;45839;44.882;20.650;2024-01-07T12:02:43;48.95;;;28.35;;
59978;SDS011;45839;44.882;20.650;2024-01-07T12:05:09;39.38;;;23.85;;
59978;SDS011;45839;44.882;20.650;2024-01-07T12:07:35;28.63;;;16.88;;
59978;SDS011;45839;44.882;20.650;2024-01-07T12:10:02;24.48;;;15.52;;
59978;SDS011;45839;44.882;20.650;2024-01-07T12:12:28;28.40;;;18.02;;
59978;SDS011;45839;44.882;20.650;2024-01-07T12:14:54;21.75;;;14.50;;
59978;SDS011;45839;44.882;20.650;2024-01-07T12:17:22;22.17;;;13.68;;
59978;SDS011;45839;44.882;20.650;2024-01-07T12:19:49;17.67;;;10.80;;
59978;SDS011;45839;44.882;20.650;2024-01-07T12:22:17;17.17;;;11.00;;
59978;SDS011;45839;44.882;20.650;2024-01-07T12:24:43;17.27;;;10.77;;
59978;SDS011;45839;44.882;20.650;2024-01-07T12:27:09;12.70;;;8.23;;
59978;SDS011;45839;44.882;20.650;2024-01-07T12:29:35;16.75;;;10.65;;
59978;SDS011;45839;44.882;20.650;2024-01-07T12:32:02;11.10;;;7.07;;
59978;SDS011;45839;44.882;20.650;2024-01-07T12:34:28;11.48;;;6.68;;
59978;SDS011;45839;44.882;20.650;2024-01-07T12:36:54;11.07;;;6.65;;
59978;SDS011;45839;44.882;20.650;2024-01-07T12:39:20;10.15;;;5.60;;
59978;SDS011;45839;44.882;20.650;2024-01-07T12:41:47;9.40;;;5.78;;
59978;SDS011;45839;44.882;20.650;2024-01-07T12:44:13;9.55;;;4.75;;
59978;SDS011;45839;44.882;20.650;2024-01-07T12:46:39;11.90;;;5.70;;
59978;SDS011;45839;44.882;20.650;2024-01-07T12:49:05;12.40;;;7.10;;
59978;SDS011;45839;44.882;20.650;2024-01-07T12:51:31;20.30;;;10.95;;
59978;SDS011;45839;44.882;20.650;2024-01-07T12:53:58;17.58;;;10.50;;
59978;SDS011;45839;44.882;20.650;2024-01-07T12:56:28;13.20;;;6.50;;
59978;SDS011;45839;44.882;20.650;2024-01-07T12:58:54;17.75;;;9.55;;
59978;SDS011;45839;44.882;20.650;2024-01-07T13:01:20;15.25;;;8.98;;
59978;SDS011;45839;44.882;20.650;2024-01-07T13:03:46;15.80;;;9.68;;
59978;SDS011;45839;44.882;20.650;2024-01-07T13:06:14;21.75;;;12.88;;
59978;SDS011;45839;44.882;20.650;2024-01-07T13:08:40;14.20;;;9.48;;
59978;SDS011;45839;44.882;20.650;2024-01-07T13:11:06;12.60;;;8.27;;
59978;SDS011;45839;44.882;20.650;2024-01-07T13:13:34;18.00;;;9.73;;
59978;SDS011;45839;44.882;20.650;2024-01-07T13:16:00;21.58;;;11.52;;
59978;SDS011;45839;44.882;20.650;2024-01-07T13:18:27;27.58;;;13.50;;
59978;SDS011;45839;44.882;20.650;2024-01-07T13:20:53;20.80;;;10.88;;
59978;SDS011;45839;44.882;20.650;2024-01-07T13:23:19;29.15;;;13.15;;
59978;SDS011;45839;44.882;20.650;2024-01-07T13:25:45;43.10;;;18.73;;
59978;SDS011;45839;44.882;20.650;2024-01-07T13:28:11;45.28;;;19.85;;
59978;SDS011;45839;44.882;20.650;2024-01-07T13:30:37;47.33;;;20.15;;
59978;SDS011;45839;44.882;20.650;2024-01-07T13:33:05;27.85;;;10.73;;
59978;SDS011;45839;44.882;20.650;2024-01-07T13:35:33;43.28;;;16.77;;
59978;SDS011;45839;44.882;20.650;2024-01-07T13:37:59;19.23;;;9.05;;
59978;SDS011;45839;44.882;20.650;2024-01-07T13:40:25;27.75;;;11.52;;
59978;SDS011;45839;44.882;20.650;2024-01-07T13:42:54;17.40;;;8.82;;
59978;SDS011;45839;44.882;20.650;2024-01-07T13:45:21;19.02;;;9.73;;
59978;SDS011;45839;44.882;20.650;2024-01-07T13:47:54;14.85;;;7.90;;
59978;SDS011;45839;44.882;20.650;2024-01-07T13:50:21;16.05;;;8.07;;
59978;SDS011;45839;44.882;20.650;2024-01-07T13:52:47;17.05;;;8.30;;
59978;SDS011;45839;44.882;20.650;2024-01-07T13:55:13;14.25;;;7.90;;
59978;SDS011;45839;44.882;20.650;2024-01-07T13:57:39;13.55;;;6.72;;
59978;SDS011;45839;44.882;20.650;2024-01-07T14:00:06;12.07;;;6.78;;
59978;SDS011;45839;44.882;20.650;2024-01-07T14:02:35;10.32;;;6.15;;
59978;SDS011;45839;44.882;20.650;2024-01-07T14:05:02;11.95;;;6.30;;
59978;SDS011;45839;44.882;20.650;2024-01-07T14:07:29;11.70;;;7.20;;
59978;SDS011;45839;44.882;20.650;2024-01-07T14:09:55;10.75;;;6.68;;
59978;SDS011;45839;44.882;20.650;2024-01-07T14:12:21;13.82;;;7.00;;
59978;SDS011;45839;44.882;20.650;2024-01-07T14:14:47;12.73;;;7.60;;
59978;SDS011;45839;44.882;20.650;2024-01-07T14:17:14;13.48;;;8.05;;
59978;SDS011;45839;44.882;20.650;2024-01-07T14:19:40;14.30;;;8.02;;
59978;SDS011;45839;44.882;20.650;2024-01-07T14:22:07;13.63;;;7.63;;
59978;SDS011;45839;44.882;20.650;2024-01-07T14:24:33;11.57;;;7.45;;
59978;SDS011;45839;44.882;20.650;2024-01-07T14:26:59;11.88;;;7.28;;
59978;SDS011;45839;44.882;20.650;2024-01-07T14:29:25;12.55;;;7.45;;
59978;SDS011;45839;44.882;20.650;2024-01-07T14:31:51;11.57;;;7.53;;
59978;SDS011;45839;44.882;20.650;2024-01-07T14:34:17;14.98;;;8.30;;
59978;SDS011;45839;44.882;20.650;2024-01-07T14:36:43;12.23;;;7.82;;
59978;SDS011;45839;44.882;20.650;2024-01-07T14:39:09;14.23;;;8.73;;
59978;SDS011;45839;44.882;20.650;2024-01-07T14:41:36;13.55;;;8.35;;
59978;SDS011;45839;44.882;20.650;2024-01-07T14:44:02;13.15;;;8.38;;
59978;SDS011;45839;44.882;20.650;2024-01-07T14:46:28;12.18;;;8.32;;
59978;SDS011;45839;44.882;20.650;2024-01-07T14:48:54;12.75;;;8.40;;
59978;SDS011;45839;44.882;20.650;2024-01-07T14:51:20;13.23;;;8.38;;
59978;SDS011;45839;44.882;20.650;2024-01-07T14:53:46;11.90;;;8.55;;